Terminal Aerodrome Forecast
Issued by NWS Pueblo, CO

Home | Current Version | Previous Version | Text Only | Print | Product List | Glossary On
Versions: 1 2 3 4 5 6 7 8 9 10 11 12 13 14 15 16 17 18 19 20 21 22 23 24 25 26 27 28 29 30 31 32 33 34 35 36 37 38 39
000
FTUS45 KPUB 251138
TAFCOS
TAF
KCOS 251138Z 2512/2612 VRB06KT P6SM FEW120 SCT200
     FM251600 23012KT P6SM SCT200
     FM251800 24015G25KT P6SM SCT140 SCT200
     FM252000 25022G32KT P6SM BKN150
     FM252300 30022G32KT P6SM SCT080 BKN150
     FM260100 32015G25KT P6SM BKN100
     FM260500 36011KT P6SM SCT020 BKN090=

USA.gov is the U.S. government's official web portal to all federal, state and local government web resources and services.